createdAt,value
2022-10-09T00:02:09.318Z,78.05
2022-10-09T00:05:15.573Z,77.93
2022-10-09T00:08:21.704Z,77.94
2022-10-09T00:11:27.567Z,77.97
2022-10-09T00:14:33.829Z,77.77
2022-10-09T00:17:39.938Z,77.84
2022-10-09T00:20:45.608Z,78.02
2022-10-09T00:23:53.036Z,77.95
2022-10-09T00:26:59.231Z,78.07
2022-10-09T00:30:06.039Z,77.97
2022-10-09T00:33:12.140Z,77.94
2022-10-09T00:36:17.583Z,77.77
2022-10-09T00:39:23.767Z,78.05
2022-10-09T00:42:30.024Z,77.94
2022-10-09T00:45:36.387Z,78.01
2022-10-09T00:48:42.488Z,77.90
2022-10-09T00:51:48.817Z,77.96
2022-10-09T00:54:56.619Z,77.95
2022-10-09T00:58:03.726Z,78.10
2022-10-09T01:01:09.917Z,78.14
2022-10-09T01:04:16.470Z,78.13
2022-10-09T01:07:30.889Z,78.11
2022-10-09T01:10:43.118Z,78.04
2022-10-09T01:13:59.306Z,78.32
2022-10-09T01:17:15.203Z,78.24
2022-10-09T01:20:27.859Z,78.34
2022-10-09T01:24:10.568Z,78.32
2022-10-09T01:27:20.158Z,78.21
2022-10-09T01:30:26.203Z,78.14
2022-10-09T01:33:31.999Z,78.26
2022-10-09T01:36:36.970Z,78.24
2022-10-09T01:39:45.911Z,78.18
2022-10-09T01:42:52.214Z,78.18
2022-10-09T01:46:25.157Z,78.06
2022-10-09T01:49:49.844Z,78.06
2022-10-09T01:53:00.588Z,78.02
2022-10-09T01:56:14.328Z,78.10
2022-10-09T01:59:21.923Z,78.12
2022-10-09T02:02:29.512Z,77.95
2022-10-09T02:05:36.916Z,78.04
2022-10-09T02:08:45.947Z,77.97
2022-10-09T02:11:56.924Z,77.95
2022-10-09T02:15:03.192Z,77.83
2022-10-09T02:18:15.000Z,77.80
2022-10-09T02:21:30.593Z,77.73
2022-10-09T02:24:39.090Z,77.52
2022-10-09T02:27:45.473Z,77.37
2022-10-09T02:30:58.583Z,77.49
2022-10-09T02:34:07.003Z,77.50
2022-10-09T02:37:13.415Z,77.48
2022-10-09T02:40:19.619Z,77.26
2022-10-09T02:43:25.979Z,77.08
2022-10-09T02:46:32.093Z,77.00
2022-10-09T02:49:38.376Z,76.96
2022-10-09T02:52:42.962Z,76.80
2022-10-09T02:55:49.011Z,76.77
2022-10-09T02:58:55.499Z,76.55
2022-10-09T03:02:01.945Z,76.40
2022-10-09T03:05:09.579Z,76.36
2022-10-09T03:08:16.213Z,76.27
2022-10-09T03:11:24.632Z,76.32
2022-10-09T03:14:30.687Z,76.43
2022-10-09T03:17:36.762Z,76.17
2022-10-09T03:20:42.900Z,76.16
2022-10-09T03:23:47.469Z,76.02
2022-10-09T03:26:53.535Z,76.02
2022-10-09T03:29:59.862Z,75.99
2022-10-09T03:33:06.026Z,75.98
2022-10-09T03:36:11.075Z,75.90
2022-10-09T03:39:17.127Z,75.85
2022-10-09T03:42:23.267Z,75.94
2022-10-09T03:45:27.772Z,75.90
2022-10-09T03:48:33.931Z,75.58
2022-10-09T03:51:38.446Z,75.60
2022-10-09T03:54:44.576Z,75.77
2022-10-09T03:57:49.123Z,75.50
2022-10-09T04:00:56.148Z,75.72
2022-10-09T04:04:02.399Z,75.60
2022-10-09T04:07:06.902Z,75.64
2022-10-09T04:10:13.389Z,75.63
2022-10-09T04:13:19.614Z,75.68
2022-10-09T04:16:24.103Z,75.61
2022-10-09T04:19:30.210Z,75.54
2022-10-09T04:22:36.351Z,75.50
2022-10-09T04:25:42.335Z,75.58
2022-10-09T04:28:48.533Z,75.53
2022-10-09T04:31:53.110Z,75.60
2022-10-09T04:34:59.376Z,75.58
2022-10-09T04:38:05.382Z,75.48
2022-10-09T04:41:11.638Z,75.47
2022-10-09T04:44:17.895Z,75.41
2022-10-09T04:47:24.101Z,75.45
2022-10-09T04:50:28.602Z,75.47
2022-10-09T04:53:35.082Z,75.48
2022-10-09T04:56:41.308Z,75.59
2022-10-09T04:59:45.766Z,75.49
2022-10-09T05:02:52.246Z,75.46
2022-10-09T05:06:04.084Z,75.42
2022-10-09T05:09:10.583Z,75.50
2022-10-09T05:12:17.057Z,75.52
2022-10-09T05:15:23.528Z,75.47
2022-10-09T05:18:29.902Z,75.42
2022-10-09T05:21:37.159Z,75.38
2022-10-09T05:24:43.256Z,75.51
2022-10-09T05:27:49.479Z,75.36
2022-10-09T05:30:53.958Z,75.54
2022-10-09T05:34:01.853Z,75.51
2022-10-09T05:37:08.024Z,75.50
2022-10-09T05:40:12.739Z,75.59
2022-10-09T05:43:18.850Z,75.61
2022-10-09T05:46:24.401Z,75.45
2022-10-09T05:49:30.577Z,75.47
2022-10-09T05:52:36.376Z,75.48
2022-10-09T05:55:40.917Z,75.59
2022-10-09T05:58:50.948Z,75.66
2022-10-09T06:01:57.148Z,75.62
2022-10-09T06:05:01.647Z,75.50
2022-10-09T06:08:07.905Z,75.65
2022-10-09T06:11:16.179Z,75.55
2022-10-09T06:14:23.220Z,75.56
2022-10-09T06:17:29.351Z,75.65
2022-10-09T06:20:33.992Z,75.52
2022-10-09T06:23:40.379Z,75.57
2022-10-09T06:26:46.691Z,75.72
2022-10-09T06:29:53.480Z,75.80
2022-10-09T06:32:59.627Z,75.76
2022-10-09T06:36:10.102Z,75.70
2022-10-09T06:39:17.040Z,75.90
2022-10-09T06:42:23.073Z,76.03
2022-10-09T06:45:29.342Z,76.06
2022-10-09T06:48:36.760Z,75.95
2022-10-09T06:51:42.902Z,75.96
2022-10-09T06:54:47.451Z,76.06
2022-10-09T06:57:53.583Z,75.86
2022-10-09T07:01:05.035Z,76.07
2022-10-09T07:04:14.554Z,76.15
2022-10-09T07:07:20.837Z,75.86
2022-10-09T07:10:25.501Z,75.78
2022-10-09T07:13:32.455Z,75.75
2022-10-09T07:16:40.251Z,75.94
2022-10-09T07:19:46.348Z,75.96
2022-10-09T07:22:52.499Z,75.82
2022-10-09T07:25:56.991Z,75.99
2022-10-09T07:29:03.202Z,75.60
2022-10-09T07:32:10.507Z,75.64
2022-10-09T07:35:17.182Z,75.65
2022-10-09T07:38:24.554Z,75.59
2022-10-09T07:41:31.784Z,75.69
2022-10-09T07:44:38.226Z,75.66
2022-10-09T07:47:44.396Z,75.47
2022-10-09T07:50:49.024Z,75.44
2022-10-09T07:53:56.520Z,75.41
2022-10-09T07:57:02.766Z,75.10
2022-10-09T08:00:11.259Z,75.01
2022-10-09T08:03:17.456Z,75.12
2022-10-09T08:06:22.304Z,74.96
2022-10-09T08:09:28.546Z,75.01
2022-10-09T08:12:34.731Z,74.72
2022-10-09T08:15:43.142Z,74.53
2022-10-09T08:18:49.635Z,74.35
2022-10-09T08:21:57.341Z,74.31
2022-10-09T08:25:07.312Z,74.17
2022-10-09T08:28:13.433Z,73.96
2022-10-09T08:31:18.850Z,73.81
2022-10-09T08:34:25.163Z,73.91
2022-10-09T08:37:29.675Z,73.78
2022-10-09T08:40:46.606Z,74.03
2022-10-09T08:43:58.436Z,73.78
2022-10-09T08:47:10.401Z,73.50
2022-10-09T08:50:23.003Z,73.48
2022-10-09T08:53:37.350Z,73.27
2022-10-09T08:56:43.643Z,72.96
2022-10-09T08:59:50.196Z,72.83
2022-10-09T09:03:19.078Z,72.71
2022-10-09T09:06:38.600Z,72.57
2022-10-09T09:09:53.743Z,72.63
2022-10-09T09:13:07.897Z,72.51
2022-10-09T09:16:23.802Z,72.17
2022-10-09T09:19:39.690Z,72.14
2022-10-09T09:22:49.746Z,71.77
2022-10-09T09:25:56.457Z,71.71
2022-10-09T09:29:06.264Z,71.85
2022-10-09T09:32:20.636Z,71.98
2022-10-09T09:35:35.999Z,71.60
2022-10-09T09:39:03.225Z,71.43
2022-10-09T09:42:16.817Z,71.41
2022-10-09T09:45:25.311Z,71.19
2022-10-09T09:48:36.795Z,71.13
2022-10-09T09:51:43.302Z,71.12
2022-10-09T09:54:50.832Z,71.10
2022-10-09T09:58:03.796Z,70.71
2022-10-09T10:01:21.119Z,70.34
2022-10-09T10:04:29.357Z,70.28
2022-10-09T10:07:37.097Z,70.14
2022-10-09T10:10:48.107Z,70.07
2022-10-09T10:13:54.380Z,69.83
2022-10-09T10:17:02.512Z,69.61
2022-10-09T10:20:12.538Z,69.28
2022-10-09T10:23:37.027Z,69.20
2022-10-09T10:26:48.786Z,69.21
2022-10-09T10:29:59.641Z,68.96
2022-10-09T10:33:14.483Z,68.95
2022-10-09T10:36:20.773Z,68.71
2022-10-09T10:39:37.235Z,68.67
2022-10-09T10:42:56.076Z,68.46
2022-10-09T10:46:13.595Z,68.20
2022-10-09T10:49:23.380Z,68.06
2022-10-09T10:52:46.035Z,67.63
2022-10-09T10:55:59.224Z,67.23
2022-10-09T10:59:29.296Z,67.03
2022-10-09T11:02:57.822Z,67.13
2022-10-09T11:06:12.687Z,66.95
2022-10-09T11:09:26.067Z,67.08
2022-10-09T11:12:48.211Z,66.83
2022-10-09T11:16:07.531Z,66.46
2022-10-09T11:19:45.402Z,66.15
2022-10-09T11:23:10.800Z,65.84
2022-10-09T11:26:27.323Z,65.70
2022-10-09T11:29:38.615Z,65.66
2022-10-09T11:32:55.818Z,65.47
2022-10-09T11:36:06.996Z,65.41
2022-10-09T11:39:18.317Z,65.59
2022-10-09T11:42:26.393Z,65.69
2022-10-09T11:45:42.987Z,65.68
2022-10-09T11:48:55.515Z,65.37
2022-10-09T11:52:09.658Z,64.93
2022-10-09T11:55:25.083Z,64.83
2022-10-09T11:58:31.300Z,64.52
2022-10-09T12:01:40.045Z,64.10
2022-10-09T12:04:54.856Z,63.90
2022-10-09T12:08:15.413Z,63.95
2022-10-09T12:11:25.632Z,64.03
2022-10-09T12:14:32.536Z,63.93
2022-10-09T12:17:47.788Z,63.73
2022-10-09T12:20:57.022Z,63.26
2022-10-09T12:24:03.796Z,63.06
2022-10-09T12:27:18.798Z,63.19
2022-10-09T12:30:27.129Z,63.01
2022-10-09T12:33:39.830Z,62.78
2022-10-09T12:36:45.988Z,62.43
2022-10-09T12:39:52.724Z,62.26
2022-10-09T12:43:01.842Z,62.02
2022-10-09T12:46:08.110Z,61.93
2022-10-09T12:49:22.804Z,61.81
2022-10-09T12:52:29.412Z,61.68
2022-10-09T12:55:37.607Z,61.71
2022-10-09T12:58:44.688Z,61.42
2022-10-09T13:01:52.482Z,61.41
2022-10-09T13:05:02.277Z,61.28
2022-10-09T13:08:22.462Z,61.01
2022-10-09T13:11:34.449Z,60.90
2022-10-09T13:14:46.602Z,60.81
2022-10-09T13:17:52.777Z,60.42
2022-10-09T13:21:07.655Z,60.06
2022-10-09T13:24:14.479Z,60.07
2022-10-09T13:27:21.339Z,59.90
2022-10-09T13:30:28.469Z,59.76
2022-10-09T13:33:34.803Z,59.76
2022-10-09T13:36:40.981Z,59.76
2022-10-09T13:39:47.267Z,59.64
2022-10-09T13:42:56.984Z,59.50
2022-10-09T13:46:03.053Z,59.47
2022-10-09T13:49:09.187Z,59.54
2022-10-09T13:52:15.323Z,59.22
2022-10-09T13:55:21.685Z,58.58
2022-10-09T13:58:27.886Z,58.75
2022-10-09T14:01:34.048Z,58.54
2022-10-09T14:04:40.181Z,58.39
2022-10-09T14:07:46.363Z,58.46
2022-10-09T14:10:52.467Z,58.17
2022-10-09T14:13:59.625Z,58.09
2022-10-09T14:17:05.842Z,58.04
2022-10-09T14:20:12.786Z,57.92
2022-10-09T14:23:19.026Z,57.75
2022-10-09T14:26:25.917Z,57.73
2022-10-09T14:29:32.075Z,57.69
2022-10-09T14:32:38.139Z,57.65
2022-10-09T14:35:42.591Z,57.46
2022-10-09T14:38:49.881Z,57.28
2022-10-09T14:41:55.984Z,57.14
2022-10-09T14:45:00.525Z,57.04
2022-10-09T14:48:07.060Z,56.86
2022-10-09T14:51:15.167Z,56.63
2022-10-09T14:54:21.510Z,56.66
2022-10-09T14:57:30.233Z,56.78
2022-10-09T15:00:39.035Z,56.82
2022-10-09T15:03:43.795Z,56.72
2022-10-09T15:06:50.103Z,56.80
2022-10-09T15:09:57.040Z,56.89
2022-10-09T15:13:03.203Z,57.19
2022-10-09T15:16:08.770Z,57.34
2022-10-09T15:19:14.999Z,57.44
2022-10-09T15:22:20.978Z,57.55
2022-10-09T15:25:31.558Z,57.88
2022-10-09T15:28:38.499Z,57.94
2022-10-09T15:31:44.897Z,57.98
2022-10-09T15:34:51.132Z,58.25
2022-10-09T15:37:57.213Z,58.39
2022-10-09T15:41:01.854Z,58.57
2022-10-09T15:44:09.792Z,58.78
2022-10-09T15:47:16.525Z,58.91
2022-10-09T15:50:23.006Z,59.15
2022-10-09T15:53:27.552Z,59.27
2022-10-09T15:56:38.757Z,59.52
2022-10-09T15:59:46.174Z,59.51
2022-10-09T16:02:52.580Z,59.51
2022-10-09T16:06:02.820Z,59.82
2022-10-09T16:09:09.051Z,60.01
2022-10-09T16:12:15.471Z,60.20
2022-10-09T16:15:21.622Z,60.39
2022-10-09T16:18:26.394Z,60.43
2022-10-09T16:21:33.264Z,60.48
2022-10-09T16:24:39.483Z,60.74
2022-10-09T16:27:43.941Z,60.94
2022-10-09T16:30:50.084Z,61.00
2022-10-09T16:33:54.527Z,61.18
2022-10-09T16:37:02.397Z,61.49
2022-10-09T16:40:10.290Z,61.68
2022-10-09T16:43:17.019Z,61.79
2022-10-09T16:46:25.214Z,61.87
2022-10-09T16:49:31.448Z,61.90
2022-10-09T16:52:36.010Z,62.05
2022-10-09T16:55:42.138Z,62.23
2022-10-09T16:58:46.607Z,62.24
2022-10-09T17:01:53.388Z,62.41
2022-10-09T17:04:59.591Z,62.63
2022-10-09T17:08:04.091Z,62.63
2022-10-09T17:11:13.115Z,62.76
2022-10-09T17:14:19.266Z,62.94
2022-10-09T17:17:23.814Z,63.21
2022-10-09T17:20:30.031Z,63.40
2022-10-09T17:23:34.492Z,63.31
2022-10-09T17:26:40.599Z,63.46
2022-10-09T17:29:46.688Z,63.49
2022-10-09T17:32:53.097Z,63.56
2022-10-09T17:46:58.032Z,63.59
2022-10-09T17:50:02.794Z,63.88
2022-10-09T17:53:09.040Z,64.13
2022-10-09T17:56:13.589Z,64.43
2022-10-09T17:59:19.809Z,64.43
2022-10-09T18:02:24.280Z,64.47
2022-10-09T18:05:30.573Z,64.49
2022-10-09T18:08:37.006Z,64.78
2022-10-09T18:11:43.170Z,64.62
2022-10-09T18:14:47.731Z,64.63
2022-10-09T18:17:53.814Z,64.72
2022-10-09T18:21:06.092Z,64.96
2022-10-09T18:24:12.376Z,65.08
2022-10-09T18:27:18.603Z,65.06
2022-10-09T18:30:23.209Z,65.15
2022-10-09T18:33:29.397Z,65.26
2022-10-09T18:36:35.085Z,65.53
2022-10-09T18:39:41.207Z,65.53
2022-10-09T18:42:47.606Z,65.49
2022-10-09T18:45:54.761Z,65.59
2022-10-09T18:49:01.124Z,65.43
2022-10-09T18:52:10.630Z,65.56
2022-10-09T18:55:20.116Z,65.47
2022-10-09T18:58:27.098Z,65.58
2022-10-09T19:01:33.280Z,65.75
2022-10-09T19:04:37.788Z,65.75
2022-10-09T19:07:43.905Z,66.11
2022-10-09T19:10:54.098Z,66.02
2022-10-09T19:14:00.972Z,66.07
2022-10-09T19:17:08.060Z,66.06
2022-10-09T19:20:14.665Z,66.21
2022-10-09T19:23:20.897Z,66.15
2022-10-09T19:26:25.155Z,66.39
2022-10-09T19:29:31.278Z,66.35
2022-10-09T19:32:37.209Z,66.53
2022-10-09T19:35:50.230Z,66.42
2022-10-09T19:38:56.253Z,66.56
2022-10-09T19:42:02.373Z,66.54
2022-10-09T19:45:10.473Z,66.72
2022-10-09T19:48:16.989Z,66.71
2022-10-09T19:51:25.044Z,66.69
2022-10-09T19:54:32.173Z,66.64
2022-10-09T19:57:38.431Z,66.76
2022-10-09T20:00:46.946Z,67.08
2022-10-09T20:03:57.137Z,67.04
2022-10-09T20:07:03.179Z,67.04
2022-10-09T20:10:10.528Z,67.06
2022-10-09T20:13:16.823Z,67.19
2022-10-09T20:16:21.777Z,67.23
2022-10-09T20:19:30.994Z,67.31
2022-10-09T20:22:37.120Z,67.26
2022-10-09T20:25:43.218Z,67.42
2022-10-09T20:28:50.349Z,67.31
2022-10-09T20:31:56.584Z,67.40
2022-10-09T20:35:02.719Z,67.23
2022-10-09T20:38:08.725Z,67.32
2022-10-09T20:41:14.962Z,67.66
2022-10-09T20:44:19.192Z,67.62
2022-10-09T20:47:25.493Z,67.70
2022-10-09T20:50:29.711Z,67.53
2022-10-09T20:53:36.034Z,67.62
2022-10-09T20:56:40.608Z,67.72
2022-10-09T20:59:47.061Z,67.56
2022-10-09T21:02:53.126Z,67.85
2022-10-09T21:05:59.352Z,68.03
2022-10-09T21:09:05.970Z,68.00
2022-10-09T21:12:12.241Z,68.01
2022-10-09T21:15:18.547Z,67.72
2022-10-09T21:18:23.087Z,67.79
2022-10-09T21:21:30.352Z,67.86
2022-10-09T21:24:36.449Z,67.91
2022-10-09T21:27:42.579Z,68.09
2022-10-09T21:30:48.640Z,68.14
2022-10-09T21:33:55.350Z,68.16
2022-10-09T21:37:20.289Z,68.31
2022-10-09T21:40:25.895Z,68.48
2022-10-09T21:43:31.938Z,68.50
2022-10-09T21:46:41.559Z,68.34
2022-10-09T21:49:47.885Z,68.41
2022-10-09T21:52:52.403Z,68.46
2022-10-09T21:55:58.867Z,68.57
2022-10-09T21:59:05.127Z,68.56
2022-10-09T22:02:09.559Z,68.44
2022-10-09T22:05:15.788Z,68.60
2022-10-09T22:08:22.145Z,68.52
2022-10-09T22:11:26.638Z,68.70
2022-10-09T22:14:33.029Z,68.97
2022-10-09T22:17:37.381Z,69.14
2022-10-09T22:20:45.376Z,69.19
2022-10-09T22:23:51.577Z,69.38
2022-10-09T22:26:57.567Z,69.33
2022-10-09T22:30:04.007Z,69.15
2022-10-09T22:33:08.231Z,69.13
2022-10-09T22:36:16.270Z,69.11
2022-10-09T22:39:22.396Z,69.18
2022-10-09T22:42:28.531Z,69.18
2022-10-09T22:45:37.690Z,69.35
2022-10-09T22:48:44.936Z,69.30
2022-10-09T22:51:51.061Z,69.30
2022-10-09T22:54:57.255Z,69.17
2022-10-09T22:58:03.295Z,69.11
2022-10-09T23:01:12.421Z,69.04
2022-10-09T23:04:20.454Z,69.17
2022-10-09T23:07:26.577Z,69.31
2022-10-09T23:10:32.801Z,69.41
2022-10-09T23:13:37.388Z,69.52
2022-10-09T23:16:43.828Z,69.49
2022-10-09T23:19:49.080Z,69.41
2022-10-09T23:22:55.184Z,69.40
2022-10-09T23:26:04.369Z,69.46
2022-10-09T23:29:15.657Z,69.50
2022-10-09T23:32:21.538Z,69.45
2022-10-09T23:35:27.691Z,69.55
2022-10-09T23:38:34.484Z,69.63
2022-10-09T23:41:41.126Z,69.64
2022-10-09T23:44:47.189Z,69.75
2022-10-09T23:47:53.095Z,69.61
2022-10-09T23:50:59.931Z,69.60
2022-10-09T23:54:07.248Z,69.76
2022-10-09T23:57:13.350Z,69.77
